Jim Falls, Wisconsin
Current Conditions -  °F | °C
As of 5:56 AM on Friday 28 Nov 2014 (Local Time) from KEAU Reporting Station
Overcast Overcast  
Wind Chill: -1°   Ceiling: 6500
Heat Index: 11°   Visibility: 10mi
Dew Point:   Wind: 8mph
Humidity: 77%   Direction: 120°ESE
Pressure: 30.1"   Gusts: NA
Location:  45.05°N, 91.27°W
Report Text: KEAU 281156Z 12007KT 10SM OVC065 M12/M15 A3010 RMK AO2 SNE19 SLP214 P0000 60000 T11171150 11117 21133 56041
Loading
Personal Weather Stations






























Interactive Weather Map New forecast layout! Learn more

10-Day Weather Forecast

Advertisements
Track Severe Weather on mobile